Weather History for Hutchinson, MN

Change the Weather History Date:

Tuesday, July 29, 2014

  Actual Average Record
Temperature  
Mean Temperature 66 °F -  
Max Temperature 78 °F 82 °F 96 °F (1999)
Min Temperature 56 °F 60 °F 45 °F (1971)
Cooling Degree Days 2    
Growing Degree Days 16 (Base 50)    
Moisture  
Dew Point 57 °F    
Average Humidity 73    
Maximum Humidity 96    
Minimum Humidity 48    
Precipitation  
Precipitation 0.00 in - - ()
Sea Level Pressure  
Sea Level Pressure 30.14 in    
Wind  
Wind Speed 6 mph (WNW)    
Max Wind Speed 14 mph    
Max Gust Speed 20 mph    
Visibility 10 miles    
Events      
Averages and records for this station are not official NWS values.
T = Trace of Precipitation, MM = Missing Value Source: NWS Daily Summary

Daily Weather History Graph

Daily Weather History Graph

Search for Another Location

Airport:

Trip Planner

Search our weather history database for the weather conditions in past years. The results will help you decide how hot, cold, wet, or windy it might be!

Date:

Astronomy

Jul. 29, 2014 Rise Set
Actual Time 5:59 AM CDT 8:47 PM CDT
Civil Twilight 5:25 AM CDT 9:21 PM CDT
Nautical Twilight 4:42 AM CDT 10:04 PM CDT
Astronomical Twilight 3:52 AM CDT 10:54 PM CDT
Moon 8:46 AM CDT (7/29) 9:49 PM CDT (7/29)
Length of Visible Light 15h 55m
Length of Day
14h 47m
Waxing Crescent, 7% of the Moon is Illuminated
Jul 29
Waxing Crescent
Aug 3
First Quarter
Aug 10
Full
Aug 17
Last Quarter
Aug 25
New

Hourly Weather History & Observations

Time (CDT) Temp. Dew Point Humidity Pressure Visibility Wind Dir Wind Speed Gust Speed Precip Events Conditions
12:12 AM 61.3 °F 57.2 °F 86% 30.18 in 10.0 mi WNW 4.6 mph - N/A   Clear
12:33 AM 60.8 °F 57.2 °F 88% 30.18 in 10.0 mi WNW 4.6 mph - N/A   Clear
12:53 AM 59.5 °F 56.7 °F 90% 30.18 in 10.0 mi WNW 4.6 mph - N/A   Clear
1:12 AM 59.5 °F 56.7 °F 90% 30.18 in 10.0 mi West 4.6 mph - N/A   Clear
1:33 AM 59.2 °F 56.5 °F 91% 30.18 in 10.0 mi WNW 4.6 mph - N/A   Clear
1:52 AM 59.0 °F 56.3 °F 91% 30.18 in 10.0 mi WNW 3.5 mph - N/A   Clear
2:13 AM 59.4 °F 56.5 °F 90% 30.17 in 10.0 mi WNW 4.6 mph - N/A   Clear
2:33 AM 57.7 °F 55.9 °F 94% 30.17 in 10.0 mi West 5.8 mph - N/A   Clear
2:53 AM 58.3 °F 55.9 °F 92% 30.17 in 10.0 mi WNW 3.5 mph - N/A   Clear
3:13 AM 57.7 °F 55.8 °F 93% 30.16 in 10.0 mi WNW 4.6 mph - N/A   Clear
3:32 AM 58.5 °F 55.8 °F 91% 30.16 in 10.0 mi West 5.8 mph - N/A   Clear
3:53 AM 56.7 °F 55.4 °F 96% 30.16 in 10.0 mi West 4.6 mph - N/A   Clear
4:12 AM 57.2 °F 55.4 °F 94% 30.16 in 10.0 mi WNW 4.6 mph - N/A   Clear
4:33 AM 57.2 °F 55.4 °F 94% 30.16 in 10.0 mi WNW 4.6 mph - N/A   Clear
4:53 AM 57.4 °F 55.4 °F 93% 30.16 in 10.0 mi WNW 4.6 mph - N/A   Clear
5:13 AM 57.2 °F 55.0 °F 92% 30.16 in 10.0 mi WNW 4.6 mph - N/A   Clear
5:33 AM 56.8 °F 54.9 °F 93% 30.16 in 10.0 mi West 4.6 mph - N/A   Clear
5:52 AM 56.5 °F 54.9 °F 94% 30.16 in 10.0 mi WNW 5.8 mph - N/A   Clear
6:13 AM 56.3 °F 54.9 °F 95% 30.17 in 10.0 mi West 4.6 mph - N/A   Clear
6:32 AM 56.5 °F 55.0 °F 95% 30.17 in 10.0 mi WNW 4.6 mph - N/A   Clear
6:53 AM 57.2 °F 55.4 °F 94% 30.17 in 10.0 mi WNW 4.6 mph - N/A   Clear
7:13 AM 58.1 °F 56.1 °F 93% 30.17 in 10.0 mi WNW 5.8 mph - N/A   Clear
7:32 AM 59.0 °F 56.5 °F 91% 30.17 in 10.0 mi WNW 4.6 mph - N/A   Clear
7:53 AM 60.6 °F 57.4 °F 89% 30.18 in 10.0 mi WNW 5.8 mph - N/A   Clear
8:12 AM 62.1 °F 58.3 °F 87% 30.18 in 10.0 mi WNW 5.8 mph - N/A   Clear
8:33 AM 63.9 °F 58.6 °F 83% 30.18 in 10.0 mi WNW 5.8 mph - N/A   Clear
9:13 AM 67.5 °F 59.7 °F 76% 30.18 in 10.0 mi WNW 5.8 mph - N/A   Clear
9:53 AM 69.8 °F 57.6 °F 65% 30.17 in 10.0 mi WNW 8.1 mph - N/A   Clear
10:13 AM 70.9 °F 57.6 °F 63% 30.17 in 10.0 mi NW 8.1 mph - N/A   Clear
10:32 AM 72.0 °F 58.6 °F 63% 30.17 in 10.0 mi West 6.9 mph - N/A   Clear
10:53 AM 72.7 °F 57.9 °F 60% 30.17 in 10.0 mi West 9.2 mph - N/A   Clear
11:13 AM 73.6 °F 58.5 °F 59% 30.17 in 10.0 mi West 9.2 mph - N/A   Clear
11:33 AM 74.5 °F 57.9 °F 56% 30.17 in 10.0 mi West 10.4 mph - N/A   Clear
11:52 AM 74.3 °F 56.7 °F 54% 30.17 in 10.0 mi West 9.2 mph - N/A   Clear
12:13 PM 74.5 °F 55.8 °F 52% 30.16 in 10.0 mi West 8.1 mph - N/A   Clear
12:32 PM 75.4 °F 56.5 °F 52% 30.16 in 10.0 mi West 5.8 mph - N/A   Scattered Clouds
12:53 PM 75.2 °F 55.2 °F 50% 30.16 in 10.0 mi West 8.1 mph - N/A   Scattered Clouds
1:13 PM 75.9 °F 56.8 °F 51% 30.16 in 10.0 mi West 10.4 mph - N/A   Scattered Clouds
1:33 PM 76.3 °F 55.8 °F 49% 30.15 in 10.0 mi West 10.4 mph - N/A   Scattered Clouds
1:52 PM 74.7 °F 55.4 °F 51% 30.14 in 10.0 mi West 9.2 mph - N/A   Scattered Clouds
2:13 PM 76.1 °F 55.4 °F 49% 30.14 in 10.0 mi West 5.8 mph - N/A   Clear
2:33 PM 76.6 °F 56.1 °F 49% 30.14 in 10.0 mi West 11.5 mph - N/A   Clear
2:52 PM 77.7 °F 56.7 °F 48% 30.13 in 10.0 mi West 13.8 mph - N/A   Clear
3:13 PM 77.5 °F 56.7 °F 48% 30.13 in 10.0 mi WNW 9.2 mph - N/A   Scattered Clouds
3:33 PM 77.7 °F 56.5 °F 48% 30.12 in 10.0 mi WSW 12.7 mph 17.3 mph N/A   Scattered Clouds
3:52 PM 76.5 °F 57.2 °F 51% 30.12 in 10.0 mi WNW 11.5 mph - N/A   Scattered Clouds
4:13 PM 77.7 °F 57.9 °F 50% 30.12 in 10.0 mi West 12.7 mph 18.4 mph N/A   Scattered Clouds
4:32 PM 77.4 °F 58.1 °F 51% 30.11 in 10.0 mi West 13.8 mph 17.3 mph N/A   Scattered Clouds
5:13 PM 77.7 °F 58.3 °F 51% 30.10 in 10.0 mi WNW 10.4 mph - N/A   Clear
5:33 PM 77.7 °F 58.1 °F 51% 30.09 in 10.0 mi West 12.7 mph - N/A   Scattered Clouds
5:52 PM 77.2 °F 57.6 °F 51% 30.09 in 10.0 mi West 13.8 mph 19.6 mph N/A   Scattered Clouds
6:13 PM 77.0 °F 57.9 °F 52% 30.09 in 10.0 mi WNW 10.4 mph - N/A   Scattered Clouds
6:33 PM 76.3 °F 57.0 °F 51% 30.09 in 10.0 mi WNW 11.5 mph - N/A   Scattered Clouds
6:53 PM 75.6 °F 56.7 °F 52% 30.08 in 10.0 mi WNW 11.5 mph - N/A   Scattered Clouds
7:12 PM 75.0 °F 57.7 °F 55% 30.08 in 10.0 mi WNW 9.2 mph - N/A   Scattered Clouds
7:33 PM 74.1 °F 56.8 °F 55% 30.08 in 10.0 mi WNW 9.2 mph - N/A   Clear
7:53 PM 73.0 °F 57.2 °F 57% 30.08 in 10.0 mi WNW 6.9 mph - N/A   Clear
8:13 PM 71.8 °F 57.4 °F 60% 30.08 in 10.0 mi WNW 6.9 mph - N/A   Clear
8:32 PM 70.2 °F 57.7 °F 65% 30.08 in 10.0 mi WNW 4.6 mph - N/A   Clear
8:52 PM 67.8 °F 59.2 °F 74% 30.08 in 10.0 mi West 4.6 mph - N/A   Clear
9:13 PM 67.1 °F 58.3 °F 73% 30.08 in 10.0 mi West 4.6 mph - N/A   Clear
9:32 PM 65.3 °F 59.0 °F 80% 30.09 in 10.0 mi West 4.6 mph - N/A   Clear
9:53 PM 64.8 °F 58.5 °F 80% 30.10 in 10.0 mi WNW 3.5 mph - N/A   Clear
10:13 PM 62.6 °F 58.8 °F 87% 30.11 in 10.0 mi West 4.6 mph - N/A   Clear
10:33 PM 61.7 °F 58.5 °F 89% 30.11 in 10.0 mi Calm Calm - N/A   Clear
10:53 PM 61.7 °F 58.3 °F 89% 30.11 in 10.0 mi WSW 3.5 mph - N/A   Clear
11:12 PM 60.4 °F 57.6 °F 90% 30.11 in 10.0 mi West 4.6 mph - N/A   Clear
11:33 PM 60.3 °F 57.6 °F 91% 30.11 in 10.0 mi West 4.6 mph - N/A   Clear
11:53 PM 59.5 °F 57.2 °F 92% 30.11 in 10.0 mi West 4.6 mph - N/A   Clear